Time;durP1;ratioP1;P1;durP2;ratioP2;P2;SDS_P1;SDS_P2;PMS_P1;PMS_P2;Temp;Humidity;BMP_temperature;BMP_pressure;BME280_temperature;BME280_humidity;BME280_pressure;Samples;Min_cycle;Max_cycle;Signal;HPM_P1;HPM_P2
2022/03/12 00:00:30;;;;;;;18.58;8.73;;;;;;;9.58;41.50;101210.25;5070500;28;20042;-76
2022/03/12 00:02:58;;;;;;;17.40;8.18;;;;;;;9.61;41.65;101209.88;5070451;28;21002;-76
2022/03/12 00:05:29;;;;;;;20.15;9.77;;;;;;;9.62;41.54;101212.38;5070370;28;20036;-76
2022/03/12 00:07:54;;;;;;;16.37;7.67;;;;;;;9.59;41.75;101210.09;5069056;28;20472;-76
2022/03/12 00:10:22;;;;;;;21.13;11.70;;;;;;;9.62;41.70;101212.38;5070330;28;20039;-76
2022/03/12 00:12:48;;;;;;;23.10;9.10;;;;;;;9.64;41.53;101217.50;5070264;28;20438;-76
2022/03/12 00:15:14;;;;;;;18.88;9.82;;;;;;;9.62;42.41;101206.22;5070198;28;20479;-76
2022/03/12 00:17:45;;;;;;;18.35;8.38;;;;;;;9.59;41.89;101207.41;5070133;28;20113;-76
2022/03/12 00:20:16;;;;;;;17.37;7.93;;;;;;;9.63;42.17;101208.69;5069971;28;20040;-76
2022/03/12 00:22:44;;;;;;;18.75;8.30;;;;;;;9.64;42.19;101210.38;5068750;28;20107;-76
2022/03/12 00:25:10;;;;;;;22.05;9.80;;;;;;;9.64;41.86;101217.50;5070232;28;20040;-76
2022/03/12 00:27:37;;;;;;;18.75;9.55;;;;;;;9.65;41.78;101220.00;5071226;28;20035;-76
2022/03/12 00:30:03;;;;;;;18.20;8.05;;;;;;;9.66;42.07;101220.81;5074820;28;20541;-76
2022/03/12 00:32:28;;;;;;;18.92;9.05;;;;;;;9.60;42.55;101218.91;5069950;28;20064;-76
2022/03/12 00:34:53;;;;;;;17.48;8.82;;;;;;;9.65;41.71;101229.84;5068571;28;20040;-76
2022/03/12 00:37:19;;;;;;;20.27;9.02;;;;;;;9.66;41.92;101226.16;5069913;28;20036;-76
2022/03/12 00:39:47;;;;;;;17.75;8.68;;;;;;;9.67;41.62;101235.81;5068297;28;20055;-76
2022/03/12 00:42:13;;;;;;;20.75;9.02;;;;;;;9.58;42.22;101223.56;5069763;28;20042;-76
2022/03/12 00:44:38;;;;;;;18.80;8.70;;;;;;;9.61;42.26;101229.34;5069619;28;20064;-76
2022/03/12 00:47:04;;;;;;;19.52;9.73;;;;;;;9.60;42.28;101246.34;5068444;28;20379;-76
2022/03/12 00:49:29;;;;;;;16.25;7.50;;;;;;;9.64;41.71;101234.34;5069730;28;20082;-76
2022/03/12 00:51:55;;;;;;;16.92;9.20;;;;;;;9.65;42.30;101235.16;5069805;28;20028;-76
2022/03/12 00:54:21;;;;;;;17.80;9.05;;;;;;;9.60;42.55;101235.69;5069602;28;20368;-76
2022/03/12 00:56:47;;;;;;;16.75;8.65;;;;;;;9.62;42.59;101243.50;5068304;28;20368;-76
2022/03/12 00:59:13;;;;;;;19.08;9.70;;;;;;;9.55;42.35;101230.09;5069624;28;20123;-76
2022/03/12 01:01:38;;;;;;;19.92;10.02;;;;;;;9.60;42.82;101240.19;5069597;28;20071;-76
2022/03/12 01:04:04;;;;;;;22.52;9.25;;;;;;;9.58;43.20;101237.69;5069752;28;20036;-76
2022/03/12 01:06:30;;;;;;;17.95;8.45;;;;;;;9.59;43.51;101233.22;5069359;28;20041;-77
2022/03/12 01:08:55;;;;;;;20.42;10.65;;;;;;;9.60;43.15;101235.69;5068298;28;20150;-76
2022/03/12 01:11:21;;;;;;;19.10;9.35;;;;;;;9.56;43.47;101231.75;5069091;28;20026;-76
2022/03/12 01:13:46;;;;;;;20.05;9.52;;;;;;;9.62;43.84;101240.84;5051415;28;20094;-76
2022/03/12 01:16:11;;;;;;;20.15;10.55;;;;;;;9.64;43.59;101247.66;5069224;28;20036;-76
2022/03/12 01:18:39;;;;;;;20.33;9.23;;;;;;;9.65;43.91;101238.66;5069401;28;20480;-76
2022/03/12 01:21:22;;;;;;;19.33;9.55;;;;;;;9.68;44.31;101245.44;5069305;28;20414;-76
2022/03/12 01:23:49;;;;;;;20.90;10.27;;;;;;;9.68;44.52;101242.78;5069338;28;20036;-76
2022/03/12 01:26:15;;;;;;;19.92;8.38;;;;;;;9.69;44.91;101244.44;5068863;28;20055;-76
2022/03/12 01:28:41;;;;;;;24.27;9.75;;;;;;;9.68;45.50;101242.78;5068018;28;20032;-76
2022/03/12 01:31:07;;;;;;;21.92;12.05;;;;;;;9.69;45.88;101246.25;5069598;28;20387;-76
2022/03/12 01:33:33;;;;;;;21.42;9.73;;;;;;;9.70;47.44;101247.94;5069423;28;20073;-76
2022/03/12 01:35:58;;;;;;;19.42;9.77;;;;;;;9.70;47.05;101245.28;5056632;28;20036;-76
2022/03/12 01:38:30;;;;;;;21.25;9.02;;;;;;;9.68;46.97;101253.44;5068896;28;20037;-76
2022/03/12 01:40:55;;;;;;;18.85;8.13;;;;;;;9.68;48.50;101253.44;5069232;28;20033;-76
2022/03/12 01:43:22;;;;;;;18.58;8.85;;;;;;;9.69;47.14;101256.91;5069260;28;20037;-76
2022/03/12 01:45:47;;;;;;;19.75;9.10;;;;;;;9.68;47.58;101252.63;5069139;28;20065;-76
2022/03/12 01:48:12;;;;;;;31.58;11.35;;;;;;;9.66;48.40;101258.09;5069816;28;20101;-76
2022/03/12 01:50:39;;;;;;;20.70;10.10;;;;;;;9.58;47.83;101259.00;5074605;28;20033;-76
2022/03/12 01:53:10;;;;;;;18.38;8.85;;;;;;;9.61;48.81;101260.47;5070381;28;20032;-76
2022/03/12 01:55:39;;;;;;;19.27;8.97;;;;;;;9.59;48.58;101271.34;5072706;28;20041;-77
2022/03/12 01:58:05;;;;;;;20.30;9.52;;;;;;;9.58;48.07;101266.16;5072808;28;20086;-76
2022/03/12 02:00:41;;;;;;;19.63;9.85;;;;;;;9.57;48.06;101268.00;5072719;28;20021;-76
2022/03/12 02:03:07;;;;;;;20.05;9.18;;;;;;;9.55;48.14;101266.53;5071369;28;20115;-76
2022/03/12 02:05:34;;;;;;;19.52;9.20;;;;;;;9.53;47.28;101268.53;5072660;28;20031;-76
2022/03/12 02:08:00;;;;;;;22.00;8.63;;;;;;;9.51;48.26;101262.56;5072616;28;20112;-76
2022/03/12 02:10:26;;;;;;;16.08;8.13;;;;;;;9.50;48.19;101263.59;5072710;28;20503;-76
2022/03/12 02:12:51;;;;;;;19.08;8.77;;;;;;;9.47;48.98;101263.94;5072696;28;20119;-76
2022/03/12 02:15:19;;;;;;;17.75;9.68;;;;;;;9.44;49.21;101263.28;5071323;28;20364;-76
2022/03/12 02:17:44;;;;;;;18.92;9.07;;;;;;;9.38;48.78;101257.88;5072246;28;20935;-76
2022/03/12 02:20:10;;;;;;;20.10;9.48;;;;;;;9.40;48.13;101261.97;5072445;28;20107;-76
2022/03/12 02:22:35;;;;;;;19.45;8.45;;;;;;;9.41;47.95;101268.16;5072206;28;20565;-76
2022/03/12 02:25:01;;;;;;;19.70;8.43;;;;;;;9.39;47.94;101270.16;5072370;28;20119;-76
2022/03/12 02:27:26;;;;;;;20.65;10.52;;;;;;;9.39;48.39;101268.31;5072276;28;20412;-76
2022/03/12 02:29:58;;;;;;;21.27;9.52;;;;;;;9.37;48.97;101273.00;5072349;28;20365;-76
2022/03/12 02:32:23;;;;;;;;;;;;;;;9.39;48.45;101265.66;5072794;28;20036;-76
2022/03/12 02:34:50;;;;;;;21.10;10.57;;;;;;;9.34;50.03;101256.56;5070968;28;19916;-76
2022/03/12 02:37:26;;;;;;;17.42;7.72;;;;;;;9.31;50.72;101268.38;5072157;28;20460;-76
2022/03/12 02:39:51;;;;;;;20.42;8.18;;;;;;;9.26;50.98;101273.41;5072029;28;20434;-76
2022/03/12 02:42:18;;;;;;;20.02;9.20;;;;;;;9.24;51.07;101272.75;5072101;28;20086;-76
2022/03/12 02:44:44;;;;;;;20.55;9.48;;;;;;;9.18;50.56;101260.16;5071778;28;20059;-76
2022/03/12 02:47:14;;;;;;;19.33;8.77;;;;;;;9.20;50.08;101269.63;5070665;28;20036;-76
2022/03/12 02:49:45;;;;;;;20.73;10.20;;;;;;;8.98;49.81;101241.16;5071804;28;20034;-76
2022/03/12 02:52:10;;;;;;;24.20;10.63;;;;;;;9.18;50.14;101276.97;5071995;28;20032;-76
2022/03/12 02:54:36;;;;;;;19.55;8.77;;;;;;;9.16;51.29;101281.63;5071803;28;20105;-76
2022/03/12 02:57:02;;;;;;;17.38;8.25;;;;;;;9.14;50.72;101277.47;5070358;28;20032;-76
2022/03/12 02:59:28;;;;;;;18.17;9.48;;;;;;;9.11;50.46;101277.84;5071644;28;20028;-76
2022/03/12 03:01:56;;;;;;;24.42;9.38;;;;;;;9.10;50.93;101279.69;5070288;28;20042;-76
2022/03/12 03:04:22;;;;;;;19.05;9.77;;;;;;;9.09;50.77;101282.50;5070319;28;20415;-76
2022/03/12 03:06:47;;;;;;;21.08;8.73;;;;;;;9.06;51.12;101282.88;5071644;28;20039;-76
2022/03/12 03:09:13;;;;;;;19.13;10.60;;;;;;;9.06;50.87;101283.69;5072042;28;20043;-76
2022/03/12 03:11:39;;;;;;;20.58;8.75;;;;;;;9.06;50.98;101289.00;5075342;28;20028;-76
2022/03/12 03:14:10;;;;;;;21.33;8.43;;;;;;;9.07;51.20;101287.19;5071832;28;20111;-76
2022/03/12 03:16:36;;;;;;;20.70;8.90;;;;;;;9.09;51.02;101294.00;5071219;28;20025;-76
2022/03/12 03:19:02;;;;;;;15.93;8.57;;;;;;;9.07;50.49;101293.34;5071405;28;20029;-76
2022/03/12 03:21:27;;;;;;;17.67;8.75;;;;;;;9.08;50.87;101288.84;5071182;28;21062;-76
2022/03/12 03:23:54;;;;;;;24.38;8.85;;;;;;;9.11;51.19;101285.81;5069999;28;20574;-76
2022/03/12 03:26:38;;;;;;;26.40;9.90;;;;;;;9.10;50.94;101289.50;5071037;28;20044;-76
2022/03/12 03:29:04;;;;;;;18.23;9.82;;;;;;;9.04;51.34;101282.19;5071253;28;20033;-76
2022/03/12 03:31:29;;;;;;;21.33;8.63;;;;;;;9.04;51.58;101290.19;5071105;28;20031;-76
2022/03/12 03:33:54;;;;;;;16.00;7.82;;;;;;;9.00;52.01;101292.38;5071008;28;20024;-76
2022/03/12 03:36:20;;;;;;;19.83;9.13;;;;;;;8.97;52.01;101304.19;5069725;28;20030;-76
2022/03/12 03:38:45;;;;;;;19.02;9.25;;;;;;;8.91;52.52;101299.59;5071061;28;20122;-76
2022/03/12 03:41:11;;;;;;;18.75;8.65;;;;;;;8.82;53.10;101297.97;5070844;28;20102;-76
2022/03/12 03:43:36;;;;;;;20.77;8.98;;;;;;;8.78;53.10;101307.31;5070722;28;20085;-76
2022/03/12 03:46:02;;;;;;;22.83;9.50;;;;;;;8.70;53.32;101313.47;5070829;28;20554;-76
2022/03/12 03:48:27;;;;;;;20.85;9.95;;;;;;;8.64;53.70;101310.69;5070725;28;20028;-76
2022/03/12 03:50:54;;;;;;;22.58;8.98;;;;;;;8.58;54.25;101319.34;5070590;28;20471;-76
2022/03/12 03:53:22;;;;;;;18.15;9.10;;;;;;;8.47;54.44;101318.72;5070490;28;20387;-76
2022/03/12 03:55:49;;;;;;;18.90;9.80;;;;;;;8.43;53.93;101325.38;5070616;28;20039;-76
2022/03/12 03:58:14;;;;;;;21.10;10.32;;;;;;;8.36;54.63;101316.41;5070378;28;20586;-76
2022/03/12 04:00:51;;;;;;;18.88;11.18;;;;;;;8.34;54.22;101321.88;5069311;28;20078;-76
2022/03/12 04:03:18;;;;;;;21.13;8.95;;;;;;;8.31;54.85;101327.53;5070461;28;20384;-76
2022/03/12 04:05:43;;;;;;;22.20;9.98;;;;;;;8.27;55.16;101336.84;5070453;28;20472;-76
2022/03/12 04:08:09;;;;;;;20.73;9.70;;;;;;;8.23;55.48;101337.38;5070300;28;20047;-76
2022/03/12 04:10:36;;;;;;;18.70;8.93;;;;;;;8.19;56.00;101331.53;5070343;28;20137;-76
2022/03/12 04:13:10;;;;;;;20.92;9.63;;;;;;;8.17;56.55;101336.19;5070293;28;20500;-76
2022/03/12 04:15:37;;;;;;;19.92;9.48;;;;;;;8.13;56.55;101340.19;5069894;28;20051;-76
2022/03/12 04:18:05;;;;;;;18.40;8.32;;;;;;;8.06;57.59;101341.84;5068507;28;20028;-76
2022/03/12 04:20:31;;;;;;;19.60;10.35;;;;;;;8.01;57.65;101346.84;5070105;28;20024;-76
2022/03/12 04:22:56;;;;;;;20.25;9.68;;;;;;;7.93;58.67;101347.69;5070319;28;20094;-76
2022/03/12 04:25:22;;;;;;;19.42;8.27;;;;;;;7.93;59.33;101365.44;5068336;28;20068;-76
2022/03/12 04:27:48;;;;;;;18.20;8.40;;;;;;;7.89;59.73;101363.13;5069613;28;20079;-76
2022/03/12 04:30:17;;;;;;;19.35;8.52;;;;;;;7.85;59.88;101359.13;5070001;28;20029;-76
2022/03/12 04:32:42;;;;;;;17.50;8.13;;;;;;;7.82;59.62;101361.28;5075913;28;20074;-77
2022/03/12 04:35:09;;;;;;;18.50;8.63;;;;;;;7.79;59.46;101356.31;5069949;28;20020;-76
2022/03/12 04:37:35;;;;;;;19.95;8.25;;;;;;;7.76;59.83;101356.66;5069722;28;20050;-76
2022/03/12 04:40:04;;;;;;;21.30;9.82;;;;;;;7.74;60.00;101346.19;5069765;28;20570;-76
2022/03/12 04:42:29;;;;;;;19.45;9.70;;;;;;;7.76;60.18;101352.19;5069624;28;20052;-76
2022/03/12 04:44:55;;;;;;;18.38;9.02;;;;;;;7.75;60.04;101355.81;5069717;28;20565;-76
2022/03/12 04:47:20;;;;;;;20.13;8.55;;;;;;;7.72;60.52;101361.44;5069815;28;20028;-76
2022/03/12 04:49:46;;;;;;;18.90;8.32;;;;;;;7.60;60.74;101350.34;5069807;28;20491;-76
2022/03/12 04:52:11;;;;;;;19.83;9.77;;;;;;;7.61;61.39;101356.47;5069686;28;20067;-76
2022/03/12 04:54:37;;;;;;;19.95;9.70;;;;;;;7.61;61.40;101365.25;5069546;28;20027;-76
2022/03/12 04:57:03;;;;;;;18.90;9.68;;;;;;;7.56;61.97;101370.22;5068427;28;20024;-76
2022/03/12 04:59:29;;;;;;;19.25;9.23;;;;;;;7.55;62.26;101370.41;5069403;28;20028;-76
2022/03/12 05:01:57;;;;;;;20.10;9.20;;;;;;;7.54;62.63;101369.56;5068109;28;20089;-76
2022/03/12 05:04:22;;;;;;;20.48;8.60;;;;;;;7.50;63.11;101364.75;5069519;28;20028;-76
2022/03/12 05:06:48;;;;;;;17.52;8.02;;;;;;;7.50;63.11;101373.56;5069492;28;20035;-76
2022/03/12 05:09:13;;;;;;;18.63;8.52;;;;;;;7.51;63.54;101374.38;5068279;28;20028;-76
2022/03/12 05:11:38;;;;;;;17.55;8.02;;;;;;;7.47;64.35;101376.53;5069463;28;20025;-76
2022/03/12 05:14:05;;;;;;;19.73;7.55;;;;;;;7.43;64.59;101376.00;5069382;28;20123;-76
2022/03/12 05:16:32;;;;;;;18.70;9.05;;;;;;;7.44;65.71;101382.16;5069507;28;20028;-76
2022/03/12 05:18:58;;;;;;;19.17;7.78;;;;;;;7.42;65.82;101377.03;5069353;28;20035;-76
2022/03/12 05:21:24;;;;;;;17.40;7.90;;;;;;;7.40;66.73;101371.03;5069320;28;20037;-76
2022/03/12 05:23:49;;;;;;;17.98;8.60;;;;;;;7.41;67.07;101382.47;5069430;28;20089;-76
2022/03/12 05:26:15;;;;;;;17.98;8.18;;;;;;;7.36;67.12;101376.81;5069394;28;20041;-76
2022/03/12 05:28:41;;;;;;;18.52;8.35;;;;;;;7.36;67.66;101375.03;5071740;28;20635;-76
2022/03/12 05:31:09;;;;;;;15.52;7.43;;;;;;;7.29;67.68;101386.44;5073303;28;20039;-76
2022/03/12 05:33:35;;;;;;;17.45;7.78;;;;;;;7.30;68.51;101393.41;5073220;28;20111;-76
2022/03/12 05:36:01;;;;;;;17.38;7.35;;;;;;;7.27;68.58;101397.22;5073245;28;20067;-76
2022/03/12 05:38:38;;;;;;;19.52;8.60;;;;;;;7.23;69.12;101393.19;5073307;28;20020;-76
2022/03/12 05:41:11;;;;;;;16.95;8.18;;;;;;;7.25;69.33;101393.88;5072996;28;20043;-76
2022/03/12 05:43:40;;;;;;;18.05;8.10;;;;;;;7.19;69.24;101384.75;5072902;28;20028;-76
2022/03/12 05:46:06;;;;;;;18.02;8.18;;;;;;;7.23;70.19;101390.56;5055036;28;20055;-76
2022/03/12 05:48:32;;;;;;;16.27;7.45;;;;;;;7.20;70.05;101389.09;5072814;28;20067;-76
2022/03/12 05:50:59;;;;;;;18.88;8.98;;;;;;;7.18;70.80;101393.72;5073800;28;20016;-76
2022/03/12 05:53:25;;;;;;;17.20;8.43;;;;;;;7.09;70.83;101385.88;5077775;28;20033;-77
2022/03/12 05:55:51;;;;;;;22.00;8.48;;;;;;;7.13;71.24;101401.31;5073620;28;20043;-76
2022/03/12 05:58:19;;;;;;;18.45;8.10;;;;;;;7.11;71.54;101410.44;5071592;28;20037;-76
2022/03/12 06:00:46;;;;;;;17.02;8.30;;;;;;;7.10;71.46;101406.09;5072408;28;20123;-76
2022/03/12 06:03:12;;;;;;;16.75;6.90;;;;;;;7.08;71.96;101405.44;5072684;28;20028;-76
2022/03/12 06:05:41;;;;;;;16.25;7.35;;;;;;;7.10;72.43;101406.94;5072506;28;20429;-76
2022/03/12 06:08:08;;;;;;;17.45;8.05;;;;;;;7.14;72.85;101413.56;5054931;28;20067;-76
2022/03/12 06:10:35;;;;;;;18.77;8.77;;;;;;;7.14;73.56;101412.75;5070827;28;20574;-76
2022/03/12 06:13:01;;;;;;;14.65;6.82;;;;;;;7.14;74.05;101415.41;5072650;28;20466;-76
2022/03/12 06:15:27;;;;;;;16.58;7.82;;;;;;;7.20;74.10;101412.09;5071154;28;20039;-76
2022/03/12 06:17:54;;;;;;;15.07;6.63;;;;;;;7.26;74.11;101414.13;5072365;28;20114;-76
2022/03/12 06:20:21;;;;;;;14.55;6.50;;;;;;;7.25;74.83;101415.94;5072224;28;20149;-76
2022/03/12 06:22:52;;;;;;;14.68;6.30;;;;;;;7.32;75.12;101424.09;5072493;28;20029;-76
2022/03/12 06:25:18;;;;;;;13.73;7.15;;;;;;;7.36;75.01;101428.09;5072230;28;20415;-76
2022/03/12 06:27:54;;;;;;;17.40;7.35;;;;;;;7.35;75.36;101428.25;5072437;28;20028;-76
2022/03/12 06:30:21;;;;;;;13.52;6.13;;;;;;;7.42;75.63;101437.22;5072114;28;20104;-76
2022/03/12 06:32:48;;;;;;;15.45;6.53;;;;;;;7.40;75.38;101426.75;5072235;28;20028;-76
2022/03/12 06:35:15;;;;;;;19.55;6.95;;;;;;;7.35;75.29;101420.28;5072193;28;20467;-76
2022/03/12 06:37:40;;;;;;;16.38;6.65;;;;;;;7.49;75.34;101445.34;5072117;28;20037;-76
2022/03/12 06:40:08;;;;;;;15.27;6.57;;;;;;;7.52;75.70;101443.22;5071833;28;20028;-76
2022/03/12 06:42:34;;;;;;;16.50;6.45;;;;;;;7.52;75.91;101440.59;5070578;28;20460;-76
2022/03/12 06:45:01;;;;;;;16.60;6.35;;;;;;;7.60;75.71;101451.22;5071535;28;20044;-76
2022/03/12 06:47:28;;;;;;;15.30;5.63;;;;;;;7.67;75.33;101446.91;5071916;28;20038;-76
2022/03/12 06:49:55;;;;;;;14.07;6.60;;;;;;;7.73;75.20;101444.59;5071972;28;20503;-76
2022/03/12 06:52:20;;;;;;;15.30;6.97;;;;;;;7.78;75.33;101440.47;5072019;28;20384;-76
2022/03/12 06:54:45;;;;;;;12.63;5.75;;;;;;;7.83;75.32;101447.91;5070457;28;20033;-76
2022/03/12 06:57:11;;;;;;;15.65;5.88;;;;;;;7.87;75.41;101446.63;5071854;28;20032;-76
2022/03/12 06:59:36;;;;;;;16.17;6.53;;;;;;;7.87;75.34;101452.75;5071787;28;20071;-76
2022/03/12 07:02:02;;;;;;;13.50;7.60;;;;;;;7.93;75.20;101451.25;5071671;28;20025;-72
2022/03/12 07:04:27;;;;;;;20.33;8.65;;;;;;;7.99;75.32;101452.41;5071512;28;20048;-72
2022/03/12 07:06:52;;;;;;;14.88;6.75;;;;;;;8.03;75.07;101451.94;5071579;28;20044;-77
2022/03/12 07:09:18;;;;;;;13.52;6.82;;;;;;;8.11;75.34;101462.56;5071566;28;20028;-76
2022/03/12 07:11:43;;;;;;;11.82;5.20;;;;;;;8.19;76.15;101448.44;5071855;28;20032;-76
2022/03/12 07:14:09;;;;;;;13.60;6.22;;;;;;;8.28;75.58;101463.41;5074876;28;20028;-76
2022/03/12 07:16:35;;;;;;;13.82;6.25;;;;;;;8.39;75.31;101475.56;5073653;28;20040;-77
2022/03/12 07:19:01;;;;;;;13.23;6.22;;;;;;;8.42;75.29;101469.91;5071296;28;20021;-77
2022/03/12 07:21:27;;;;;;;13.77;5.88;;;;;;;8.55;75.68;101472.06;5071219;28;20430;-77
2022/03/12 07:23:53;;;;;;;14.77;5.90;;;;;;;8.64;75.41;101468.38;5071152;28;20055;-76
2022/03/12 07:26:20;;;;;;;13.70;6.10;;;;;;;8.75;75.37;101475.16;5071496;28;20492;-76
2022/03/12 07:28:46;;;;;;;9.35;5.18;;;;;;;8.86;75.37;101471.34;5071080;28;20476;-76
2022/03/12 07:31:12;;;;;;;12.52;5.60;;;;;;;8.91;75.02;101477.00;5070808;28;20090;-76
2022/03/12 07:33:37;;;;;;;13.25;6.15;;;;;;;8.96;75.08;101475.47;5069877;28;20041;-77
2022/03/12 07:36:04;;;;;;;11.77;5.78;;;;;;;9.03;75.31;101480.09;5070971;28;20093;-77
2022/03/12 07:38:29;;;;;;;13.57;6.22;;;;;;;9.06;75.13;101474.44;5069540;28;20033;-77
2022/03/12 07:40:55;;;;;;;16.65;6.03;;;;;;;9.16;75.25;101488.38;5070820;28;20432;-77
2022/03/12 07:43:20;;;;;;;14.25;5.95;;;;;;;9.22;75.28;101490.34;5069485;28;20455;-77
2022/03/12 07:45:45;;;;;;;12.30;6.20;;;;;;;9.25;74.72;101492.69;5070555;28;20058;-76
2022/03/12 07:48:12;;;;;;;13.82;6.95;;;;;;;9.35;74.73;101493.31;5052835;28;20499;-77
2022/03/12 07:50:37;;;;;;;16.38;7.05;;;;;;;9.54;74.68;101493.91;5070048;28;20028;-76
2022/03/12 07:53:03;;;;;;;11.23;5.50;;;;;;;9.64;74.23;101511.31;5069318;28;20021;-76
2022/03/12 07:55:28;;;;;;;10.07;5.97;;;;;;;9.72;74.29;101513.09;5070750;28;20505;-75
2022/03/12 07:57:53;;;;;;;14.60;6.50;;;;;;;9.78;74.15;101520.38;5070437;28;20533;-77
2022/03/12 08:00:19;;;;;;;11.77;5.40;;;;;;;9.96;73.56;101519.31;5069138;28;20032;-77
2022/03/12 08:02:46;;;;;;;15.75;5.90;;;;;;;10.26;72.92;101517.59;5070355;28;20032;-73
2022/03/12 08:05:13;;;;;;;13.65;6.38;;;;;;;10.53;71.48;101516.22;5070313;28;20032;-72
2022/03/12 08:07:39;;;;;;;13.25;5.97;;;;;;;10.77;71.04;101515.19;5070386;28;20024;-72
2022/03/12 08:10:06;;;;;;;11.10;5.30;;;;;;;10.95;70.32;101518.34;5070155;28;20051;-72
2022/03/12 08:12:35;;;;;;;12.82;5.57;;;;;;;11.15;69.79;101517.78;5070197;28;20060;-74
2022/03/12 08:15:05;;;;;;;16.35;5.72;;;;;;;11.29;68.93;101524.13;5070203;28;20063;-72
2022/03/12 08:17:31;;;;;;;12.20;6.20;;;;;;;11.31;69.14;101530.13;5070141;28;20140;-73
2022/03/12 08:19:56;;;;;;;10.23;4.93;;;;;;;11.36;68.61;101531.22;5068570;28;20029;-73
2022/03/12 08:22:22;;;;;;;10.55;5.53;;;;;;;11.35;68.43;101537.59;5070051;28;20031;-73
2022/03/12 08:24:49;;;;;;;10.82;5.22;;;;;;;11.31;68.54;101540.81;5068495;28;20059;-74
2022/03/12 08:27:15;;;;;;;12.57;6.18;;;;;;;11.18;68.98;101541.44;5069969;28;20099;-73
2022/03/12 08:29:44;;;;;;;11.30;5.50;;;;;;;11.13;69.30;101530.50;5069940;28;20449;-73
2022/03/12 08:32:10;;;;;;;13.35;6.13;;;;;;;11.09;69.81;101546.06;5069862;28;20032;-73
2022/03/12 08:34:36;;;;;;;11.93;5.35;;;;;;;11.04;69.89;101548.44;5070122;28;20032;-73
2022/03/12 08:37:03;;;;;;;12.80;5.70;;;;;;;11.05;69.98;101546.59;5069848;28;20472;-73
2022/03/12 08:39:28;;;;;;;8.93;4.82;;;;;;;11.06;70.36;101558.94;5069191;28;20501;-73
2022/03/12 08:41:55;;;;;;;11.13;6.10;;;;;;;11.01;70.24;101540.81;5068451;28;20036;-73
2022/03/12 08:44:21;;;;;;;12.88;4.95;;;;;;;11.14;70.54;101561.53;5068141;28;20403;-73
2022/03/12 08:46:47;;;;;;;9.18;5.00;;;;;;;11.20;69.95;101558.13;5069748;28;20028;-72
2022/03/12 08:49:13;;;;;;;12.38;5.95;;;;;;;11.37;69.71;101564.94;5069357;28;20498;-73
2022/03/12 08:51:39;;;;;;;10.10;5.20;;;;;;;11.47;69.42;101569.16;5069304;28;20047;-73
2022/03/12 08:54:05;;;;;;;12.45;5.35;;;;;;;11.53;68.39;101557.78;5069457;28;20115;-74
2022/03/12 08:56:31;;;;;;;10.38;5.13;;;;;;;11.57;69.04;101567.88;5069976;28;20532;-73
2022/03/12 08:58:57;;;;;;;10.68;5.28;;;;;;;11.62;68.81;101564.66;5068256;28;20037;-73
2022/03/12 09:01:23;;;;;;;9.00;4.53;;;;;;;11.61;68.07;101549.66;5069378;28;20411;-73
2022/03/12 09:03:49;;;;;;;11.70;5.50;;;;;;;11.80;67.96;101570.44;5069632;28;20040;-73
2022/03/12 09:06:16;;;;;;;13.75;5.38;;;;;;;11.86;67.67;101568.88;5069568;28;20029;-73
2022/03/12 09:08:42;;;;;;;10.70;5.20;;;;;;;11.87;67.79;101556.34;5069426;28;20032;-73
2022/03/12 09:11:07;;;;;;;12.95;5.93;;;;;;;11.93;68.51;101560.97;5069625;28;20038;-73
2022/03/12 09:13:32;;;;;;;10.85;5.00;;;;;;;11.98;67.79;101555.88;5069351;28;20071;-73
2022/03/12 09:15:58;;;;;;;9.95;4.90;;;;;;;12.05;67.31;101554.09;5069431;28;20552;-73
2022/03/12 09:18:24;;;;;;;9.40;4.97;;;;;;;12.20;66.88;101567.41;5069451;28;20036;-74
2022/03/12 09:20:50;;;;;;;11.35;5.13;;;;;;;12.27;66.65;101571.00;5069104;28;20033;-75
2022/03/12 09:23:18;;;;;;;10.45;4.90;;;;;;;12.25;66.17;101556.97;5067909;28;20496;-74
2022/03/12 09:25:44;;;;;;;10.63;4.90;;;;;;;12.37;65.83;101573.38;5069330;28;20090;-73
2022/03/12 09:28:10;;;;;;;10.68;5.53;;;;;;;12.46;65.94;101575.69;5069269;28;20483;-73
2022/03/12 09:30:35;;;;;;;11.25;5.00;;;;;;;12.46;65.46;101575.69;5069326;28;20037;-73
2022/03/12 09:33:01;;;;;;;14.15;6.45;;;;;;;12.50;65.58;101581.53;5067885;28;20055;-73
2022/03/12 09:35:28;;;;;;;10.45;5.43;;;;;;;12.54;66.12;101571.25;5069124;28;20032;-73
2022/03/12 09:37:55;;;;;;;10.88;5.03;;;;;;;12.58;64.83;101576.03;5067953;28;20032;-73
2022/03/12 09:40:20;;;;;;;10.50;4.53;;;;;;;12.59;65.18;101582.22;5067801;28;20044;-73
2022/03/12 09:42:46;;;;;;;9.18;5.05;;;;;;;12.63;64.93;101576.28;5069056;28;20020;-73
2022/03/12 09:45:14;;;;;;;11.27;5.25;;;;;;;12.67;65.19;101579.41;5068939;28;20048;-73
2022/03/12 09:47:40;;;;;;;8.40;4.30;;;;;;;12.63;64.33;101572.78;5069000;28;20119;-73
2022/03/12 09:50:06;;;;;;;11.02;5.05;;;;;;;12.67;64.73;101574.03;5069072;28;20039;-73
2022/03/12 09:52:32;;;;;;;10.73;4.40;;;;;;;12.76;64.45;101580.06;5068816;28;20033;-73
2022/03/12 09:54:57;;;;;;;9.38;4.25;;;;;;;12.89;64.53;101573.00;5069052;28;20486;-73
2022/03/12 09:57:23;;;;;;;12.43;4.70;;;;;;;13.04;63.65;101562.19;5067502;28;20040;-73
2022/03/12 09:59:49;;;;;;;11.27;4.57;;;;;;;13.07;62.68;101566.31;5068810;28;20033;-73
2022/03/12 10:02:14;;;;;;;6.13;3.25;;;;;;;13.19;63.69;101564.75;5067699;28;20036;-73
2022/03/12 10:04:40;;;;;;;9.32;3.90;;;;;;;13.29;62.48;101572.47;5068876;28;20028;-73
2022/03/12 10:07:09;;;;;;;7.95;3.45;;;;;;;13.30;62.84;101577.63;5068710;28;20067;-73
2022/03/12 10:09:36;;;;;;;9.30;4.38;;;;;;;13.31;62.59;101589.19;5067668;28;20496;-73
2022/03/12 10:12:01;;;;;;;9.00;4.13;;;;;;;13.27;61.29;101587.91;5068899;28;20059;-73
2022/03/12 10:14:28;;;;;;;8.70;3.95;;;;;;;13.22;60.37;101583.13;5070144;28;20066;-73
2022/03/12 10:16:53;;;;;;;6.90;2.80;;;;;;;13.12;59.34;101585.31;5072454;28;20032;-73
2022/03/12 10:19:19;;;;;;;6.60;3.15;;;;;;;13.02;59.96;101588.34;5072400;28;20065;-74
2022/03/12 10:21:45;;;;;;;11.70;4.25;;;;;;;12.93;58.70;101592.19;5072383;28;20035;-73
2022/03/12 10:24:12;;;;;;;9.75;3.53;;;;;;;12.90;59.28;101589.88;5072369;28;20117;-73
2022/03/12 10:26:38;;;;;;;4.35;2.60;;;;;;;12.90;59.76;101590.72;5072134;28;20036;-73
2022/03/12 10:29:07;;;;;;;11.82;3.05;;;;;;;13.01;60.03;101585.84;5072380;28;20105;-73
2022/03/12 10:31:32;;;;;;;8.80;3.55;;;;;;;13.11;59.00;101595.19;5072300;28;20024;-74
2022/03/12 10:34:17;;;;;;;8.82;2.97;;;;;;;13.19;58.18;101596.06;5072370;28;20506;-73
2022/03/12 10:36:45;;;;;;;10.48;3.05;;;;;;;13.23;59.01;101602.69;5072286;28;20028;-74
2022/03/12 10:39:11;;;;;;;6.20;2.40;;;;;;;13.31;58.42;101594.56;5070876;28;20025;-74
2022/03/12 10:41:37;;;;;;;8.10;2.53;;;;;;;13.50;58.55;101601.88;5071999;28;20033;-73
2022/03/12 10:44:04;;;;;;;5.72;2.63;;;;;;;13.63;56.71;101595.75;5071720;28;20032;-73
2022/03/12 10:46:30;;;;;;;8.23;3.03;;;;;;;13.68;57.26;101595.16;5071980;28;20102;-73
2022/03/12 10:48:58;;;;;;;6.32;2.88;;;;;;;13.72;57.48;101593.72;5071957;28;20040;-73
2022/03/12 10:51:26;;;;;;;5.85;2.45;;;;;;;13.81;56.12;101600.59;5071818;28;20494;-74
2022/03/12 10:54:15;;;;;;;5.20;1.95;;;;;;;13.73;56.85;101598.91;5071679;28;20028;-73
2022/03/12 10:56:48;;;;;;;5.65;2.40;;;;;;;13.61;56.79;101600.47;5071735;28;20074;-73
2022/03/12 10:59:19;;;;;;;3.97;2.13;;;;;;;13.62;57.05;101591.41;5070313;28;20059;-73
2022/03/12 11:01:56;;;;;;;4.83;2.13;;;;;;;13.72;56.88;101591.88;5071589;28;20532;-73
2022/03/12 11:04:24;;;;;;;6.05;2.20;;;;;;;13.77;54.97;101597.47;5071731;28;20322;-73
2022/03/12 11:06:56;;;;;;;5.45;2.28;;;;;;;13.84;55.36;101594.81;5070160;28;20407;-73
2022/03/12 11:09:40;;;;;;;4.53;2.22;;;;;;;13.86;56.33;101590.09;5071592;28;20028;-74
2022/03/12 11:12:38;;;;;;;5.78;2.38;;;;;;;14.01;56.26;101597.97;5071478;28;20376;-74
2022/03/12 11:15:15;;;;;;;11.70;4.13;;;;;;;14.14;54.91;101595.31;5063651;28;20044;-73
2022/03/12 11:17:43;;;;;;;6.18;2.67;;;;;;;14.19;54.52;101594.72;5071289;28;20060;-74
2022/03/12 11:20:28;;;;;;;6.07;2.67;;;;;;;14.22;54.64;101595.13;5071361;28;20028;-73
2022/03/12 11:23:27;;;;;;;4.80;2.40;;;;;;;14.38;55.49;101598.47;5071293;28;20036;-73